createdAt,value
2018-08-29T00:00:37.782Z,0.00
2018-08-29T00:01:37.776Z,0.00
2018-08-29T00:02:37.760Z,0.00
2018-08-29T00:03:37.750Z,0.00
2018-08-29T00:04:37.741Z,0.00
2018-08-29T00:05:37.705Z,0.00
2018-08-29T00:06:37.699Z,0.00
2018-08-29T00:07:37.686Z,0.00
2018-08-29T00:08:37.666Z,0.00
2018-08-29T00:09:58.667Z,0.00
2018-08-29T00:10:37.639Z,0.00
2018-08-29T00:11:37.618Z,0.00
2018-08-29T00:12:37.612Z,0.00
2018-08-29T00:13:37.594Z,0.00
2018-08-29T00:14:37.587Z,0.00
2018-08-29T00:15:37.582Z,0.00
2018-08-29T00:16:37.549Z,0.00
2018-08-29T00:17:37.548Z,0.00
2018-08-29T00:18:37.521Z,0.00
2018-08-29T00:19:37.510Z,0.00
2018-08-29T00:20:37.512Z,0.00
2018-08-29T00:21:37.478Z,0.00
2018-08-29T00:22:37.464Z,0.00
2018-08-29T00:23:37.452Z,0.00
2018-08-29T00:24:37.435Z,0.00
2018-08-29T00:25:37.435Z,0.00
2018-08-29T00:26:37.422Z,0.00
2018-08-29T00:27:37.393Z,0.00
2018-08-29T00:28:37.401Z,0.00
2018-08-29T00:29:37.362Z,0.00
2018-08-29T00:30:37.406Z,0.00
2018-08-29T00:31:37.352Z,0.00
2018-08-29T00:32:37.326Z,0.00
2018-08-29T00:33:37.317Z,0.00
2018-08-29T00:34:37.304Z,0.00
2018-08-29T00:35:37.274Z,0.00
2018-08-29T00:36:37.275Z,0.00
2018-08-29T00:37:37.246Z,0.00
2018-08-29T00:38:37.241Z,0.00
2018-08-29T00:39:37.219Z,0.00
2018-08-29T00:40:37.212Z,0.00
2018-08-29T00:41:37.216Z,0.00
2018-08-29T00:42:37.184Z,0.00
2018-08-29T00:43:37.157Z,0.00
2018-08-29T00:44:37.157Z,0.00
2018-08-29T00:45:37.129Z,0.00
2018-08-29T00:46:37.115Z,0.00
2018-08-29T00:47:37.115Z,0.00
2018-08-29T00:48:37.085Z,0.00
2018-08-29T00:49:37.076Z,0.00
2018-08-29T00:50:37.061Z,0.00
2018-08-29T00:51:37.058Z,0.00
2018-08-29T00:52:37.029Z,0.00
2018-08-29T00:53:37.030Z,0.00
2018-08-29T00:54:37.003Z,0.00
2018-08-29T00:55:36.988Z,0.00
2018-08-29T00:56:36.986Z,0.00
2018-08-29T00:57:36.951Z,0.00
2018-08-29T00:58:36.959Z,0.00
2018-08-29T00:59:36.950Z,0.00
2018-08-29T01:00:36.911Z,0.00
2018-08-29T01:01:36.895Z,0.00
2018-08-29T01:02:36.889Z,0.00
2018-08-29T01:03:36.883Z,0.00
2018-08-29T01:04:57.871Z,0.00
2018-08-29T01:05:36.846Z,0.00
2018-08-29T01:06:36.824Z,0.00
2018-08-29T01:07:36.829Z,0.00
2018-08-29T01:08:36.828Z,0.00
2018-08-29T01:09:36.780Z,0.00
2018-08-29T01:10:36.772Z,0.00
2018-08-29T01:11:36.768Z,0.00
2018-08-29T01:12:36.750Z,0.00
2018-08-29T01:13:36.750Z,0.00
2018-08-29T01:14:36.728Z,0.00
2018-08-29T01:15:36.693Z,0.00
2018-08-29T01:16:36.678Z,0.00
2018-08-29T01:17:36.666Z,0.00
2018-08-29T01:18:36.652Z,0.00
2018-08-29T01:19:36.645Z,0.00
2018-08-29T01:20:36.623Z,0.00
2018-08-29T01:21:36.607Z,0.00
2018-08-29T01:22:36.590Z,0.00
2018-08-29T01:23:36.577Z,0.00
2018-08-29T01:24:36.589Z,0.00
2018-08-29T01:25:36.549Z,0.00
2018-08-29T01:26:36.542Z,0.00
2018-08-29T01:27:36.513Z,0.00
2018-08-29T01:28:36.524Z,0.00
2018-08-29T01:29:36.496Z,0.00
2018-08-29T01:30:36.470Z,0.00
2018-08-29T01:31:36.459Z,0.00
2018-08-29T01:32:36.445Z,0.00
2018-08-29T01:33:36.443Z,0.00
2018-08-29T01:34:36.420Z,0.00
2018-08-29T01:35:36.396Z,0.00
2018-08-29T01:36:36.386Z,0.00
2018-08-29T01:37:36.366Z,0.00
2018-08-29T01:38:36.373Z,0.00
2018-08-29T01:39:36.343Z,0.00
2018-08-29T01:40:36.321Z,0.00
2018-08-29T01:41:36.327Z,0.00
2018-08-29T01:42:36.306Z,0.00
2018-08-29T01:43:36.281Z,0.00
2018-08-29T01:44:36.279Z,0.00
2018-08-29T01:45:36.250Z,0.00
2018-08-29T01:46:36.270Z,0.00
2018-08-29T01:47:36.218Z,0.00
2018-08-29T01:48:36.213Z,0.00
2018-08-29T01:49:36.189Z,0.00
2018-08-29T01:50:36.178Z,0.00
2018-08-29T01:51:36.194Z,0.00
2018-08-29T01:52:36.143Z,0.00
2018-08-29T01:53:36.126Z,0.00
2018-08-29T01:54:36.120Z,0.00
2018-08-29T01:55:36.105Z,0.00
2018-08-29T01:56:36.087Z,0.00
2018-08-29T01:57:36.083Z,0.00
2018-08-29T01:58:36.056Z,0.00
2018-08-29T01:59:36.038Z,0.00
2018-08-29T02:00:36.027Z,0.00
2018-08-29T02:01:36.014Z,0.00
2018-08-29T02:02:35.993Z,0.00
2018-08-29T02:03:35.999Z,0.00
2018-08-29T02:04:35.966Z,0.00
2018-08-29T02:05:35.948Z,0.00
2018-08-29T02:06:35.941Z,0.00
2018-08-29T02:07:35.952Z,0.00
2018-08-29T02:08:35.908Z,0.00
2018-08-29T02:09:35.894Z,0.00
2018-08-29T02:10:35.878Z,0.00
2018-08-29T02:11:35.863Z,0.00
2018-08-29T02:12:35.879Z,0.00
2018-08-29T02:13:35.849Z,0.00
2018-08-29T02:14:35.832Z,0.00
2018-08-29T02:15:35.803Z,0.00
2018-08-29T02:16:35.789Z,0.00
2018-08-29T02:17:35.771Z,0.00
2018-08-29T02:18:35.772Z,0.00
2018-08-29T02:19:35.740Z,0.00
2018-08-29T02:20:35.726Z,0.00
2018-08-29T02:21:35.713Z,0.00
2018-08-29T02:22:35.708Z,0.00
2018-08-29T02:23:35.699Z,0.00
2018-08-29T02:24:35.664Z,0.00
2018-08-29T02:25:35.670Z,0.00
2018-08-29T02:26:35.640Z,0.00
2018-08-29T02:27:35.624Z,0.00
2018-08-29T02:28:35.641Z,0.00
2018-08-29T02:29:35.590Z,0.00
2018-08-29T02:30:35.584Z,0.00
2018-08-29T02:31:35.579Z,0.00
2018-08-29T02:32:35.555Z,0.00
2018-08-29T02:33:35.535Z,0.00
2018-08-29T02:34:35.539Z,0.00
2018-08-29T02:35:35.509Z,0.00
2018-08-29T02:36:35.500Z,0.00
2018-08-29T02:37:35.475Z,0.00
2018-08-29T02:38:35.468Z,0.00
2018-08-29T02:39:35.457Z,0.00
2018-08-29T02:40:35.432Z,0.00
2018-08-29T02:41:35.427Z,0.00
2018-08-29T02:42:35.403Z,0.00
2018-08-29T02:43:35.379Z,0.00
2018-08-29T02:44:35.382Z,0.00
2018-08-29T02:45:35.355Z,0.00
2018-08-29T02:46:35.335Z,0.00
2018-08-29T02:47:35.325Z,0.00
2018-08-29T02:48:35.310Z,0.00
2018-08-29T02:49:35.326Z,0.00
2018-08-29T02:50:35.284Z,0.00
2018-08-29T02:51:35.275Z,0.00
2018-08-29T02:52:35.255Z,0.00
2018-08-29T02:53:35.234Z,0.00
2018-08-29T02:54:35.221Z,0.00
2018-08-29T02:55:35.221Z,0.00
2018-08-29T02:56:35.189Z,0.00
2018-08-29T02:57:35.169Z,0.00
2018-08-29T02:58:35.159Z,0.00
2018-08-29T02:59:35.138Z,0.00
2018-08-29T03:00:35.138Z,0.00
2018-08-29T03:01:35.105Z,0.00
2018-08-29T03:02:35.093Z,0.00
2018-08-29T03:03:35.072Z,0.00
2018-08-29T03:04:35.077Z,0.00
2018-08-29T03:05:35.076Z,0.00
2018-08-29T03:06:35.041Z,0.00
2018-08-29T03:07:35.023Z,0.00
2018-08-29T03:08:35.003Z,0.00
2018-08-29T03:09:34.989Z,0.00
2018-08-29T03:10:34.974Z,0.00
2018-08-29T03:11:34.977Z,0.00
2018-08-29T03:12:34.950Z,0.00
2018-08-29T03:13:34.932Z,0.00
2018-08-29T03:14:34.906Z,0.00
2018-08-29T03:15:34.898Z,0.00
2018-08-29T03:16:34.895Z,0.00
2018-08-29T03:17:34.865Z,0.00
2018-08-29T03:18:34.873Z,0.00
2018-08-29T03:19:34.834Z,0.00
2018-08-29T03:20:34.835Z,0.00
2018-08-29T03:21:34.827Z,0.00
2018-08-29T03:22:34.804Z,0.00
2018-08-29T03:23:34.783Z,0.00
2018-08-29T03:24:34.768Z,0.00
2018-08-29T03:25:34.743Z,0.00
2018-08-29T03:26:34.770Z,0.00
2018-08-29T03:27:34.714Z,0.00
2018-08-29T03:28:34.702Z,0.00
2018-08-29T03:29:34.683Z,0.00
2018-08-29T03:30:34.664Z,0.00
2018-08-29T03:31:34.649Z,0.00
2018-08-29T03:32:34.648Z,0.00
2018-08-29T03:33:34.620Z,0.00
2018-08-29T03:34:34.613Z,0.00
2018-08-29T03:35:34.594Z,0.00
2018-08-29T03:36:34.575Z,0.00
2018-08-29T03:37:34.592Z,0.00
2018-08-29T03:38:34.550Z,0.00
2018-08-29T03:39:34.527Z,0.00
2018-08-29T03:40:34.518Z,0.00
2018-08-29T03:41:34.501Z,0.00
2018-08-29T03:42:34.533Z,0.00
2018-08-29T03:43:34.471Z,0.00
2018-08-29T03:44:34.455Z,0.00
2018-08-29T03:45:34.440Z,0.00
2018-08-29T03:46:34.425Z,0.00
2018-08-29T03:47:34.409Z,0.00
2018-08-29T03:48:34.414Z,0.00
2018-08-29T03:49:34.374Z,0.00
2018-08-29T03:50:34.364Z,0.00
2018-08-29T03:51:34.358Z,0.00
2018-08-29T03:52:34.341Z,0.00
2018-08-29T03:53:34.320Z,0.00
2018-08-29T03:54:34.339Z,0.00
2018-08-29T03:55:34.285Z,0.00
2018-08-29T03:56:34.268Z,0.00
2018-08-29T03:57:34.266Z,0.00
2018-08-29T03:58:34.266Z,0.00
2018-08-29T03:59:34.228Z,0.00
2018-08-29T04:00:34.210Z,0.00
2018-08-29T04:01:34.196Z,0.00
2018-08-29T04:02:34.174Z,0.00
2018-08-29T04:03:34.193Z,0.00
2018-08-29T04:04:34.150Z,0.00
2018-08-29T04:05:34.135Z,0.00
2018-08-29T04:06:34.120Z,0.00
2018-08-29T04:07:34.098Z,0.00
2018-08-29T04:08:34.088Z,0.00
2018-08-29T04:09:34.091Z,0.00
2018-08-29T04:10:34.062Z,0.00
2018-08-29T04:11:34.040Z,0.00
2018-08-29T04:12:34.042Z,0.00
2018-08-29T04:13:34.007Z,0.00
2018-08-29T04:14:34.008Z,0.00
2018-08-29T04:15:33.977Z,0.00
2018-08-29T04:16:33.966Z,0.00
2018-08-29T04:17:33.951Z,0.00
2018-08-29T04:18:33.932Z,0.00
2018-08-29T04:19:33.933Z,0.00
2018-08-29T04:20:33.915Z,0.00
2018-08-29T04:21:33.885Z,0.00
2018-08-29T04:22:33.893Z,0.00
2018-08-29T04:23:33.859Z,0.00
2018-08-29T04:24:33.849Z,0.00
2018-08-29T04:25:33.856Z,4.00
2018-08-29T04:26:33.804Z,4.00
2018-08-29T04:27:33.797Z,0.00
2018-08-29T04:28:33.774Z,0.00
2018-08-29T04:29:33.779Z,4.00
2018-08-29T04:30:33.748Z,4.00
2018-08-29T04:31:33.739Z,0.00
2018-08-29T04:32:33.784Z,4.00
2018-08-29T04:33:33.699Z,4.00
2018-08-29T04:34:33.687Z,4.00
2018-08-29T04:35:33.678Z,4.00
2018-08-29T04:36:33.665Z,8.00
2018-08-29T04:37:33.636Z,8.00
2018-08-29T04:38:33.614Z,8.00
2018-08-29T04:39:33.604Z,8.00
2018-08-29T04:40:33.633Z,12.00
2018-08-29T04:41:33.569Z,12.00
2018-08-29T04:43:05.173Z,12.00
2018-08-29T04:44:02.581Z,12.00
2018-08-29T04:47:54.913Z,16.00
2018-08-29T04:48:34.160Z,20.00
2018-08-29T04:49:33.456Z,20.00
2018-08-29T04:50:33.469Z,28.00
2018-08-29T04:51:33.415Z,24.00
2018-08-29T04:52:33.412Z,28.00
2018-08-29T04:53:33.406Z,32.00
2018-08-29T04:54:33.386Z,32.00
2018-08-29T04:55:33.380Z,36.00
2018-08-29T04:56:33.357Z,40.00
2018-08-29T04:57:33.316Z,48.00
2018-08-29T04:58:33.322Z,52.00
2018-08-29T04:59:33.310Z,52.00
2018-08-29T05:00:33.278Z,56.00
2018-08-29T05:01:33.257Z,64.00
2018-08-29T05:02:33.252Z,64.00
2018-08-29T05:03:33.275Z,68.00
2018-08-29T05:04:33.250Z,72.00
2018-08-29T05:05:33.192Z,76.00
2018-08-29T05:06:33.188Z,80.00
2018-08-29T05:07:33.180Z,84.00
2018-08-29T05:08:33.154Z,88.00
2018-08-29T05:09:33.136Z,92.00
2018-08-29T05:10:33.147Z,92.00
2018-08-29T05:11:33.110Z,100.00
2018-08-29T05:12:33.134Z,104.00
2018-08-29T05:13:33.110Z,108.00
2018-08-29T05:14:33.083Z,116.00
2018-08-29T05:15:33.057Z,116.00
2018-08-29T05:16:33.029Z,120.00
2018-08-29T05:17:33.012Z,120.00
2018-08-29T05:18:33.014Z,124.00
2018-08-29T05:19:32.978Z,132.00
2018-08-29T05:20:32.966Z,132.00
2018-08-29T05:21:32.984Z,136.00
2018-08-29T05:22:32.941Z,136.00
2018-08-29T05:23:33.023Z,140.00
2018-08-29T05:24:32.953Z,140.00
2018-08-29T05:25:32.996Z,144.00
2018-08-29T05:26:32.949Z,148.00
2018-08-29T05:27:32.861Z,152.00
2018-08-29T05:28:32.847Z,160.00
2018-08-29T05:29:32.824Z,160.00
2018-08-29T05:30:32.825Z,160.00
2018-08-29T05:31:32.796Z,160.00
2018-08-29T05:32:32.776Z,164.00
2018-08-29T05:33:32.768Z,172.00
2018-08-29T05:34:32.749Z,176.00
2018-08-29T05:35:32.733Z,176.00
2018-08-29T05:36:32.738Z,172.00
2018-08-29T05:37:32.702Z,176.00
2018-08-29T05:38:32.707Z,172.00
2018-08-29T05:39:32.672Z,168.00
2018-08-29T05:40:32.682Z,172.00
2018-08-29T05:41:32.643Z,164.00
2018-08-29T05:42:32.623Z,168.00
2018-08-29T05:43:32.625Z,164.00
2018-08-29T05:44:32.593Z,160.00
2018-08-29T05:45:32.582Z,156.00
2018-08-29T05:46:32.569Z,160.00
2018-08-29T05:47:32.632Z,160.00
2018-08-29T05:48:32.559Z,156.00
2018-08-29T05:49:32.522Z,160.00
2018-08-29T05:50:32.503Z,160.00
2018-08-29T05:51:32.491Z,156.00
2018-08-29T05:52:32.474Z,160.00
2018-08-29T05:53:32.452Z,160.00
2018-08-29T05:54:32.460Z,160.00
2018-08-29T05:55:32.497Z,164.00
2018-08-29T05:56:32.413Z,164.00
2018-08-29T05:57:32.400Z,176.00
2018-08-29T05:58:32.385Z,184.00
2018-08-29T05:59:32.382Z,196.00
2018-08-29T06:00:32.367Z,200.00
2018-08-29T06:01:32.365Z,212.00
2018-08-29T06:02:32.321Z,216.00
2018-08-29T06:03:32.303Z,220.00
2018-08-29T06:04:32.294Z,224.00
2018-08-29T06:05:32.277Z,224.00
2018-08-29T06:06:53.282Z,224.00
2018-08-29T06:07:32.249Z,224.00
2018-08-29T06:08:32.234Z,228.00
2018-08-29T06:09:32.232Z,228.00
2018-08-29T06:10:32.202Z,232.00
2018-08-29T06:11:32.204Z,228.00
2018-08-29T06:12:32.186Z,236.00
2018-08-29T06:13:32.154Z,232.00
2018-08-29T06:14:32.145Z,236.00
2018-08-29T06:15:32.129Z,244.00
2018-08-29T06:16:32.126Z,240.00
2018-08-29T06:17:32.100Z,248.00
2018-08-29T06:18:53.100Z,252.00
2018-08-29T06:19:32.084Z,256.00
2018-08-29T06:20:32.051Z,260.00
2018-08-29T06:21:32.054Z,276.00
2018-08-29T06:22:32.024Z,288.00
2018-08-29T06:23:32.029Z,308.00
2018-08-29T06:24:32.003Z,328.00
2018-08-29T06:25:31.975Z,368.00
2018-08-29T06:26:31.968Z,412.00
2018-08-29T06:27:31.948Z,464.00
2018-08-29T06:28:31.947Z,496.00
2018-08-29T06:29:31.933Z,516.00
2018-08-29T06:30:31.903Z,524.00
2018-08-29T06:31:31.896Z,532.00
2018-08-29T06:32:31.922Z,532.00
2018-08-29T06:33:31.878Z,528.00
2018-08-29T06:34:31.863Z,524.00
2018-08-29T06:35:31.835Z,520.00
2018-08-29T06:36:31.818Z,508.00
2018-08-29T06:37:31.809Z,512.00
2018-08-29T06:38:31.782Z,532.00
2018-08-29T06:39:31.807Z,548.00
2018-08-29T06:40:31.780Z,572.00
2018-08-29T06:41:31.741Z,580.00
2018-08-29T06:42:31.725Z,588.00
2018-08-29T06:43:31.719Z,544.00
2018-08-29T06:44:31.713Z,516.00
2018-08-29T06:45:31.683Z,460.00
2018-08-29T06:46:31.664Z,436.00
2018-08-29T06:47:31.666Z,416.00
2018-08-29T06:48:31.636Z,400.00
2018-08-29T06:49:31.625Z,368.00
2018-08-29T06:50:31.634Z,320.00
2018-08-29T06:51:31.607Z,272.00
2018-08-29T06:52:31.577Z,240.00
2018-08-29T06:53:31.566Z,216.00
2018-08-29T06:54:31.552Z,216.00
2018-08-29T06:55:31.552Z,224.00
2018-08-29T06:56:31.521Z,256.00
2018-08-29T06:57:31.507Z,288.00
2018-08-29T06:58:31.497Z,328.00
2018-08-29T06:59:31.479Z,348.00
2018-08-29T07:00:31.490Z,356.00
2018-08-29T07:01:31.454Z,360.00
2018-08-29T07:02:31.448Z,364.00
2018-08-29T07:03:31.425Z,364.00
2018-08-29T07:04:31.405Z,376.00
2018-08-29T07:05:31.404Z,380.00
2018-08-29T07:06:31.417Z,384.00
2018-08-29T07:07:31.368Z,392.00
2018-08-29T07:08:31.357Z,396.00
2018-08-29T07:09:31.411Z,400.00
2018-08-29T07:10:31.320Z,400.00
2018-08-29T07:11:31.315Z,408.00
2018-08-29T07:12:31.311Z,412.00
2018-08-29T07:13:31.277Z,412.00
2018-08-29T07:14:31.279Z,416.00
2018-08-29T07:15:31.271Z,420.00
2018-08-29T07:16:31.243Z,432.00
2018-08-29T07:17:31.222Z,436.00
2018-08-29T07:18:31.245Z,440.00
2018-08-29T07:19:31.204Z,452.00
2018-08-29T07:20:31.191Z,460.00
2018-08-29T07:21:31.174Z,464.00
2018-08-29T07:22:31.166Z,468.00
2018-08-29T07:23:31.138Z,476.00
2018-08-29T07:24:31.160Z,488.00
2018-08-29T07:25:31.139Z,492.00
2018-08-29T07:26:31.099Z,504.00
2018-08-29T07:27:31.105Z,516.00
2018-08-29T07:28:31.076Z,520.00
2018-08-29T07:29:31.222Z,536.00
2018-08-29T07:30:31.050Z,544.00
2018-08-29T07:31:31.035Z,544.00
2018-08-29T07:32:31.022Z,520.00
2018-08-29T07:33:31.006Z,548.00
2018-08-29T07:34:31.017Z,576.00
2018-08-29T07:35:30.995Z,596.00
2018-08-29T07:36:30.970Z,608.00
2018-08-29T07:37:30.950Z,620.00
2018-08-29T07:38:30.943Z,632.00
2018-08-29T07:39:30.945Z,644.00
2018-08-29T07:40:30.913Z,656.00
2018-08-29T07:41:30.931Z,660.00
2018-08-29T07:42:30.896Z,656.00
2018-08-29T07:43:30.880Z,640.00
2018-08-29T07:44:30.894Z,628.00
2018-08-29T07:45:30.855Z,616.00
2018-08-29T07:46:30.840Z,624.00
2018-08-29T07:47:30.826Z,628.00
2018-08-29T07:48:30.861Z,632.00
2018-08-29T07:49:30.799Z,640.00
2018-08-29T07:50:30.801Z,652.00
2018-08-29T07:51:30.770Z,652.00
2018-08-29T07:52:30.763Z,652.00
2018-08-29T07:53:30.748Z,648.00
2018-08-29T07:54:30.737Z,648.00
2018-08-29T07:55:30.740Z,648.00
2018-08-29T07:56:30.703Z,648.00
2018-08-29T07:57:30.700Z,648.00
2018-08-29T07:58:30.686Z,656.00
2018-08-29T07:59:30.672Z,672.00
2018-08-29T08:00:30.658Z,684.00
2018-08-29T08:01:30.784Z,700.00
2018-08-29T08:02:30.635Z,704.00
2018-08-29T08:03:30.622Z,696.00
2018-08-29T08:04:30.622Z,724.00
2018-08-29T08:05:30.595Z,756.00
2018-08-29T08:06:30.584Z,788.00
2018-08-29T08:07:30.672Z,788.00
2018-08-29T08:08:31.064Z,792.00
2018-08-29T08:09:30.579Z,796.00
2018-08-29T08:10:30.544Z,792.00
2018-08-29T08:11:30.517Z,768.00
2018-08-29T08:12:30.522Z,760.00
2018-08-29T08:13:30.493Z,780.00
2018-08-29T08:14:30.490Z,816.00
2018-08-29T08:15:30.503Z,840.00
2018-08-29T08:16:30.460Z,856.00
2018-08-29T08:17:30.455Z,856.00
2018-08-29T08:18:30.430Z,860.00
2018-08-29T08:19:30.422Z,868.00
2018-08-29T08:20:30.417Z,868.00
2018-08-29T08:21:30.395Z,876.00
2018-08-29T08:22:30.414Z,900.00
2018-08-29T08:23:30.373Z,904.00
2018-08-29T08:24:30.381Z,896.00
2018-08-29T08:25:30.346Z,888.00
2018-08-29T08:26:30.335Z,904.00
2018-08-29T08:27:30.323Z,904.00
2018-08-29T08:28:30.307Z,872.00
2018-08-29T08:29:30.299Z,852.00
2018-08-29T08:30:30.306Z,840.00
2018-08-29T08:31:30.275Z,860.00
2018-08-29T08:32:30.263Z,876.00
2018-08-29T08:33:30.250Z,896.00
2018-08-29T08:34:30.253Z,920.00
2018-08-29T08:35:30.230Z,912.00
2018-08-29T08:36:30.212Z,916.00
2018-08-29T08:37:30.201Z,932.00
2018-08-29T08:38:30.214Z,956.00
2018-08-29T08:39:30.199Z,952.00
2018-08-29T08:40:30.237Z,960.00
2018-08-29T08:41:30.156Z,976.00
2018-08-29T08:42:30.144Z,1036.00
2018-08-29T08:43:30.135Z,1036.00
2018-08-29T08:44:30.121Z,1028.00
2018-08-29T08:45:30.113Z,1032.00
2018-08-29T08:46:30.116Z,1104.00
2018-08-29T08:47:30.093Z,1124.00
2018-08-29T08:48:30.246Z,1120.00
2018-08-29T08:49:30.457Z,1116.00
2018-08-29T08:50:30.093Z,1120.00
2018-08-29T08:51:30.044Z,1108.00
2018-08-29T08:52:30.036Z,1104.00
2018-08-29T08:53:30.023Z,1104.00
2018-08-29T08:54:30.011Z,1104.00
2018-08-29T08:55:30.003Z,1128.00
2018-08-29T08:56:30.006Z,1136.00
2018-08-29T08:57:29.977Z,1140.00
2018-08-29T08:58:29.980Z,1152.00
2018-08-29T08:59:30.002Z,1172.00
2018-08-29T09:00:29.946Z,1184.00
2018-08-29T09:01:29.957Z,1176.00
2018-08-29T09:02:29.924Z,1168.00
2018-08-29T09:03:29.915Z,1184.00
2018-08-29T09:04:29.914Z,1220.00
2018-08-29T09:05:29.891Z,1248.00
2018-08-29T09:06:29.898Z,1252.00
2018-08-29T09:07:30.070Z,1256.00
2018-08-29T09:08:29.864Z,1444.00
2018-08-29T09:09:29.850Z,1612.00
2018-08-29T09:10:29.834Z,1692.00
2018-08-29T09:11:29.852Z,2808.00
2018-08-29T09:12:29.821Z,2620.00
2018-08-29T09:13:29.809Z,3036.00
2018-08-29T09:14:29.929Z,4552.00
2018-08-29T09:15:29.786Z,4704.00
2018-08-29T09:16:29.775Z,5772.00
2018-08-29T09:17:29.787Z,5632.00
2018-08-29T09:18:29.754Z,4896.00
2018-08-29T09:19:29.750Z,7220.00
2018-08-29T09:20:29.737Z,6492.00
2018-08-29T09:21:29.727Z,9092.00
2018-08-29T09:22:29.735Z,9320.00
2018-08-29T09:23:29.709Z,9540.00
2018-08-29T09:24:29.695Z,10532.00
2018-08-29T09:25:29.690Z,10512.00
2018-08-29T09:26:29.680Z,10268.00
2018-08-29T09:27:29.701Z,10396.00
2018-08-29T09:28:29.724Z,10288.00
2018-08-29T09:29:29.689Z,10488.00
2018-08-29T09:30:29.647Z,10196.00
2018-08-29T09:31:29.642Z,9872.00
2018-08-29T09:32:29.630Z,9928.00
2018-08-29T09:33:29.635Z,10376.00
2018-08-29T09:34:29.617Z,10092.00
2018-08-29T09:35:29.611Z,10756.00
2018-08-29T09:36:29.619Z,10212.00
2018-08-29T09:37:29.619Z,9316.00
2018-08-29T09:38:29.605Z,9716.00
2018-08-29T09:39:29.587Z,9972.00
2018-08-29T09:40:29.577Z,10908.00
2018-08-29T09:41:29.571Z,11368.00
2018-08-29T09:42:29.567Z,11508.00
2018-08-29T09:43:29.579Z,12068.00
2018-08-29T09:44:29.557Z,10808.00
2018-08-29T09:45:29.582Z,11484.00
2018-08-29T09:46:29.613Z,11636.00
2018-08-29T09:47:29.541Z,12104.00
2018-08-29T09:48:29.542Z,12552.00
2018-08-29T09:49:29.527Z,11092.00
2018-08-29T09:50:29.529Z,10068.00
2018-08-29T09:51:29.539Z,12692.00
2018-08-29T09:52:29.521Z,12552.00
2018-08-29T09:53:29.509Z,12940.00
2018-08-29T09:54:29.527Z,12748.00
2018-08-29T09:55:29.504Z,9532.00
2018-08-29T09:56:29.501Z,11892.00
2018-08-29T09:57:29.491Z,12860.00
2018-08-29T09:58:29.538Z,12036.00
2018-08-29T09:59:29.593Z,12080.00
2018-08-29T10:00:29.486Z,9448.00
2018-08-29T10:01:29.494Z,10624.00
2018-08-29T10:02:29.499Z,5876.00
2018-08-29T10:03:29.550Z,4488.00
2018-08-29T10:04:29.553Z,5668.00
2018-08-29T10:05:29.497Z,4456.00
2018-08-29T10:06:29.469Z,2712.00
2018-08-29T10:07:29.459Z,2384.00
2018-08-29T10:08:29.461Z,2168.00
2018-08-29T10:09:29.453Z,2064.00
2018-08-29T10:10:29.531Z,2268.00
2018-08-29T10:11:29.467Z,3400.00
2018-08-29T10:12:29.456Z,3668.00
2018-08-29T10:13:29.446Z,3840.00
2018-08-29T10:14:29.441Z,2948.00
2018-08-29T10:15:29.459Z,2992.00
2018-08-29T10:16:29.449Z,2920.00
2018-08-29T10:17:29.480Z,4396.00
2018-08-29T10:18:29.422Z,8360.00
2018-08-29T10:19:29.409Z,12640.00
2018-08-29T10:20:29.413Z,12956.00
2018-08-29T10:21:29.426Z,8472.00
2018-08-29T10:22:29.402Z,10488.00
2018-08-29T10:23:29.399Z,11748.00
2018-08-29T10:24:29.387Z,8732.00
2018-08-29T10:25:29.386Z,5076.00
2018-08-29T10:26:29.394Z,2264.00
2018-08-29T10:27:29.399Z,1716.00
2018-08-29T10:28:29.374Z,1560.00
2018-08-29T10:29:29.372Z,1764.00
2018-08-29T10:30:29.368Z,1672.00
2018-08-29T10:31:29.361Z,1928.00
2018-08-29T10:32:29.375Z,2020.00
2018-08-29T10:33:29.352Z,2132.00
2018-08-29T10:34:29.366Z,2372.00
2018-08-29T10:35:29.343Z,3164.00
2018-08-29T10:36:29.349Z,9140.00
2018-08-29T10:37:29.348Z,9636.00
2018-08-29T10:38:29.330Z,10552.00
2018-08-29T10:39:29.327Z,10168.00
2018-08-29T10:40:29.323Z,4204.00
2018-08-29T10:41:29.313Z,4368.00
2018-08-29T10:42:29.359Z,9772.00
2018-08-29T10:43:29.304Z,9824.00
2018-08-29T10:44:29.303Z,9164.00
2018-08-29T10:45:29.297Z,6820.00
2018-08-29T10:46:29.295Z,8032.00
2018-08-29T10:47:29.311Z,5300.00
2018-08-29T10:48:29.285Z,3240.00
2018-08-29T10:49:29.344Z,2388.00
2018-08-29T10:50:29.275Z,2812.00
2018-08-29T10:51:29.279Z,4328.00
2018-08-29T10:52:29.294Z,4924.00
2018-08-29T10:53:29.264Z,5676.00
2018-08-29T10:54:29.273Z,6336.00
2018-08-29T10:55:29.256Z,9436.00
2018-08-29T10:56:29.252Z,6920.00
2018-08-29T10:57:29.328Z,8712.00
2018-08-29T10:58:29.237Z,9952.00
2018-08-29T10:59:29.248Z,9584.00
2018-08-29T11:00:29.250Z,8492.00
2018-08-29T11:01:29.230Z,5552.00
2018-08-29T11:02:29.224Z,8304.00
2018-08-29T11:03:29.217Z,7240.00
2018-08-29T11:04:29.235Z,9416.00
2018-08-29T11:05:29.297Z,9792.00
2018-08-29T11:06:29.211Z,9344.00
2018-08-29T11:07:29.205Z,8880.00
2018-08-29T11:08:29.220Z,9688.00
2018-08-29T11:09:29.204Z,8760.00
2018-08-29T11:10:29.194Z,5960.00
2018-08-29T11:11:29.275Z,4624.00
2018-08-29T11:12:29.205Z,5788.00
2018-08-29T11:13:29.204Z,8968.00
2018-08-29T11:14:29.182Z,8712.00
2018-08-29T11:15:29.185Z,8552.00
2018-08-29T11:16:29.179Z,7956.00
2018-08-29T11:17:29.181Z,7052.00
2018-08-29T11:18:29.193Z,7244.00
2018-08-29T11:19:29.174Z,4800.00
2018-08-29T11:20:29.173Z,4788.00
2018-08-29T11:21:29.168Z,3812.00
2018-08-29T11:22:29.215Z,2576.00
2018-08-29T11:23:29.185Z,1904.00
2018-08-29T11:24:29.168Z,1696.00
2018-08-29T11:25:29.155Z,1748.00
2018-08-29T11:26:29.151Z,1624.00
2018-08-29T11:27:29.156Z,1604.00
2018-08-29T11:28:29.313Z,1444.00
2018-08-29T11:29:29.170Z,1264.00
2018-08-29T11:30:29.159Z,1144.00
2018-08-29T11:31:29.144Z,1064.00
2018-08-29T11:32:29.140Z,1000.00
2018-08-29T11:33:29.131Z,932.00
2018-08-29T11:34:29.150Z,900.00
2018-08-29T11:35:29.122Z,872.00
2018-08-29T11:36:29.127Z,860.00
2018-08-29T11:37:29.118Z,852.00
2018-08-29T11:38:29.128Z,848.00
2018-08-29T11:39:29.106Z,840.00
2018-08-29T11:40:29.108Z,848.00
2018-08-29T11:41:29.098Z,872.00
2018-08-29T11:42:29.141Z,904.00
2018-08-29T11:43:29.090Z,928.00
2018-08-29T11:44:29.093Z,944.00
2018-08-29T11:45:29.089Z,956.00
2018-08-29T11:46:29.065Z,972.00
2018-08-29T11:47:29.059Z,964.00
2018-08-29T11:48:29.049Z,952.00
2018-08-29T11:49:29.069Z,928.00
2018-08-29T11:50:29.029Z,876.00
2018-08-29T11:51:29.036Z,808.00
2018-08-29T11:52:29.025Z,744.00
2018-08-29T11:53:29.027Z,704.00
2018-08-29T11:54:29.021Z,684.00
2018-08-29T11:55:29.016Z,676.00
2018-08-29T11:56:28.996Z,676.00
2018-08-29T11:57:28.986Z,672.00
2018-08-29T11:58:28.980Z,688.00
2018-08-29T11:59:28.993Z,716.00
2018-08-29T12:00:28.982Z,748.00
2018-08-29T12:01:28.957Z,764.00
2018-08-29T12:02:28.951Z,772.00
2018-08-29T12:03:28.957Z,772.00
2018-08-29T12:04:28.937Z,780.00
2018-08-29T12:05:28.948Z,804.00
2018-08-29T12:06:28.921Z,816.00
2018-08-29T12:07:29.022Z,836.00
2018-08-29T12:08:28.906Z,852.00
2018-08-29T12:09:28.902Z,908.00
2018-08-29T12:10:28.905Z,956.00
2018-08-29T12:11:28.899Z,1004.00
2018-08-29T12:12:28.873Z,1044.00
2018-08-29T12:13:28.867Z,1048.00
2018-08-29T12:14:28.860Z,1056.00
2018-08-29T12:15:28.860Z,1064.00
2018-08-29T12:16:28.841Z,1084.00
2018-08-29T12:17:28.849Z,1144.00
2018-08-29T12:18:28.824Z,1164.00
2018-08-29T12:19:28.911Z,1148.00
2018-08-29T12:20:28.812Z,1184.00
2018-08-29T12:21:28.797Z,1172.00
2018-08-29T12:22:28.812Z,1140.00
2018-08-29T12:23:28.803Z,1240.00
2018-08-29T12:24:28.779Z,1372.00
2018-08-29T12:25:28.770Z,1404.00
2018-08-29T12:26:28.785Z,1376.00
2018-08-29T12:27:28.774Z,1284.00
2018-08-29T12:28:28.762Z,1136.00
2018-08-29T12:29:28.750Z,1048.00
2018-08-29T12:30:28.736Z,980.00
2018-08-29T12:31:28.807Z,948.00
2018-08-29T12:32:28.712Z,928.00
2018-08-29T12:33:28.724Z,900.00
2018-08-29T12:34:28.726Z,892.00
2018-08-29T12:35:28.694Z,932.00
2018-08-29T12:36:28.684Z,1008.00
2018-08-29T12:37:28.779Z,1060.00
2018-08-29T12:38:28.684Z,1052.00
2018-08-29T12:39:28.665Z,1036.00
2018-08-29T12:40:28.653Z,1036.00
2018-08-29T12:41:28.646Z,1032.00
2018-08-29T12:42:28.634Z,1080.00